createdAt,value
2022-12-27T00:01:14.432Z,2.37
2022-12-27T00:03:41.656Z,2.35
2022-12-27T00:06:21.823Z,2.34
2022-12-27T00:08:49.244Z,2.35
2022-12-27T00:11:18.688Z,2.35
2022-12-27T00:13:45.795Z,2.32
2022-12-27T00:16:15.215Z,2.32
2022-12-27T00:18:42.713Z,2.33
2022-12-27T00:21:12.175Z,2.32
2022-12-27T00:23:41.089Z,2.30
2022-12-27T00:26:12.463Z,2.30
2022-12-27T00:28:38.959Z,2.30
2022-12-27T00:31:05.699Z,2.34
2022-12-27T00:33:33.709Z,2.37
2022-12-27T00:36:01.454Z,2.36
2022-12-27T00:38:28.322Z,2.36
2022-12-27T00:40:55.059Z,2.34
2022-12-27T00:43:21.514Z,2.37
2022-12-27T00:45:47.950Z,2.45
2022-12-27T00:48:14.377Z,2.50
2022-12-27T00:50:41.833Z,2.48
2022-12-27T00:53:08.992Z,2.50
2022-12-27T00:55:35.429Z,2.54
2022-12-27T00:58:02.122Z,2.55
2022-12-27T01:00:28.560Z,2.56
2022-12-27T01:02:55.285Z,2.55
2022-12-27T01:05:22.371Z,2.52
2022-12-27T01:07:49.075Z,2.49
2022-12-27T01:10:15.550Z,2.48
2022-12-27T01:12:42.131Z,2.50
2022-12-27T01:15:09.989Z,2.59
2022-12-27T01:17:36.585Z,2.67
2022-12-27T01:20:03.756Z,2.80
2022-12-27T01:22:30.389Z,2.87
2022-12-27T01:24:56.901Z,2.97
2022-12-27T01:27:23.327Z,3.06
2022-12-27T01:29:49.766Z,3.09
2022-12-27T01:32:16.200Z,3.07
2022-12-27T01:34:42.623Z,3.01
2022-12-27T01:37:09.027Z,2.94
2022-12-27T01:39:35.430Z,2.93
2022-12-27T01:42:20.498Z,2.95
2022-12-27T01:44:55.155Z,3.03
2022-12-27T01:47:25.616Z,3.08
2022-12-27T01:50:00.903Z,3.13
2022-12-27T01:52:35.145Z,3.19
2022-12-27T01:55:10.481Z,3.24
2022-12-27T01:57:37.180Z,3.26
2022-12-27T02:00:04.628Z,3.23
2022-12-27T02:02:32.025Z,3.21
2022-12-27T02:04:58.788Z,3.21
2022-12-27T02:07:31.488Z,3.22
2022-12-27T02:10:00.683Z,3.27
2022-12-27T02:12:27.418Z,3.31
2022-12-27T02:14:54.057Z,3.33
2022-12-27T02:17:28.074Z,3.34
2022-12-27T02:20:00.574Z,3.34
2022-12-27T02:23:24.628Z,3.31
2022-12-27T02:25:51.014Z,3.31
2022-12-27T02:28:32.846Z,3.32
2022-12-27T02:31:12.336Z,3.33
2022-12-27T02:33:46.801Z,3.32
2022-12-27T02:36:22.369Z,3.33
2022-12-27T02:38:53.806Z,3.36
2022-12-27T02:41:38.842Z,3.40
2022-12-27T02:44:23.745Z,3.43
2022-12-27T02:47:10.690Z,3.43
2022-12-27T02:49:58.344Z,3.41
2022-12-27T02:53:03.318Z,3.38
2022-12-27T02:56:24.594Z,3.32
2022-12-27T02:59:38.112Z,3.29
2022-12-27T03:02:52.690Z,3.26
2022-12-27T03:05:29.316Z,3.19
2022-12-27T03:07:55.712Z,3.12
2022-12-27T03:10:55.923Z,3.05
2022-12-27T03:14:05.384Z,3.00
2022-12-27T03:16:55.627Z,2.95
2022-12-27T03:19:52.317Z,2.93
2022-12-27T03:22:40.639Z,2.92
2022-12-27T03:25:26.570Z,2.89
2022-12-27T03:28:15.376Z,2.84
2022-12-27T03:31:03.262Z,2.78
2022-12-27T03:33:33.112Z,2.71
2022-12-27T03:36:25.812Z,2.70
2022-12-27T03:39:03.304Z,2.67
2022-12-27T03:41:56.618Z,2.65
2022-12-27T03:44:25.986Z,2.59
2022-12-27T03:47:00.605Z,2.59
2022-12-27T03:49:26.943Z,2.55
2022-12-27T03:52:11.546Z,2.52
2022-12-27T03:54:40.912Z,2.52
2022-12-27T03:57:15.376Z,2.54
2022-12-27T03:59:41.891Z,2.55
2022-12-27T04:02:09.553Z,2.54
2022-12-27T04:04:36.450Z,2.56
2022-12-27T04:07:03.779Z,2.56
2022-12-27T04:09:48.962Z,2.54
2022-12-27T04:12:33.741Z,2.55
2022-12-27T04:15:19.128Z,2.55
2022-12-27T04:18:04.963Z,2.56
2022-12-27T04:20:50.728Z,2.54
2022-12-27T04:23:36.010Z,2.50
2022-12-27T04:26:21.290Z,2.51
2022-12-27T04:29:06.179Z,2.53
2022-12-27T04:31:51.613Z,2.56
2022-12-27T04:34:36.400Z,2.55
2022-12-27T04:37:02.898Z,2.53
2022-12-27T04:39:29.377Z,2.53
2022-12-27T04:42:14.595Z,2.50
2022-12-27T04:44:59.887Z,2.47
2022-12-27T04:47:45.475Z,2.46
2022-12-27T04:50:40.971Z,2.42
2022-12-27T04:53:31.485Z,2.41
2022-12-27T04:55:58.149Z,2.40
2022-12-27T04:58:25.278Z,2.37
2022-12-27T05:01:14.262Z,2.37
2022-12-27T05:03:42.645Z,2.36
2022-12-27T05:06:09.365Z,2.37
2022-12-27T05:08:54.896Z,2.35
2022-12-27T05:11:40.282Z,2.42
2022-12-27T05:14:11.035Z,2.49
2022-12-27T05:16:39.806Z,2.55
2022-12-27T05:19:08.710Z,2.61
2022-12-27T05:22:03.134Z,2.66
2022-12-27T05:24:48.508Z,2.65
2022-12-27T05:27:15.371Z,2.60
2022-12-27T05:29:41.846Z,2.54
2022-12-27T05:32:13.056Z,2.47
2022-12-27T05:34:39.736Z,2.43
2022-12-27T05:37:06.173Z,2.43
2022-12-27T05:39:32.626Z,2.41
2022-12-27T05:41:59.037Z,2.38
2022-12-27T05:44:25.404Z,2.38
2022-12-27T05:46:54.090Z,2.40
2022-12-27T05:49:20.552Z,2.40
2022-12-27T05:51:47.322Z,2.38
2022-12-27T05:54:14.042Z,2.37
2022-12-27T05:56:41.123Z,2.39
2022-12-27T05:59:08.135Z,2.43
2022-12-27T06:01:34.916Z,2.45
2022-12-27T06:04:01.413Z,2.47
2022-12-27T06:06:28.780Z,2.49
2022-12-27T06:08:55.203Z,2.46
2022-12-27T06:11:21.688Z,2.44
2022-12-27T06:13:53.251Z,2.42
2022-12-27T06:16:21.605Z,2.44
2022-12-27T06:18:48.271Z,2.40
2022-12-27T06:21:17.447Z,2.38
2022-12-27T06:23:45.739Z,2.37
2022-12-27T06:26:16.069Z,2.36
2022-12-27T06:28:42.858Z,2.33
2022-12-27T06:31:09.447Z,2.35
2022-12-27T06:33:35.857Z,2.33
2022-12-27T06:36:07.541Z,2.30
2022-12-27T06:38:33.946Z,2.30
2022-12-27T06:41:02.100Z,2.30
2022-12-27T06:43:28.492Z,2.32
2022-12-27T06:46:00.626Z,2.33
2022-12-27T06:48:27.201Z,2.31
2022-12-27T06:50:53.950Z,2.30
2022-12-27T06:53:20.593Z,2.31
2022-12-27T06:55:47.127Z,2.30
2022-12-27T06:58:13.757Z,2.29
2022-12-27T07:00:41.197Z,2.29
2022-12-27T07:03:08.075Z,2.34
2022-12-27T07:05:35.577Z,2.39
2022-12-27T07:08:01.990Z,2.43
2022-12-27T07:10:28.479Z,2.42
2022-12-27T07:12:56.131Z,2.35
2022-12-27T07:15:23.007Z,2.30
2022-12-27T07:17:49.402Z,2.27
2022-12-27T07:20:16.058Z,2.19
2022-12-27T07:22:42.511Z,2.15
2022-12-27T07:25:08.911Z,2.17
2022-12-27T07:27:36.806Z,2.18
2022-12-27T07:30:04.788Z,2.21
2022-12-27T07:32:31.396Z,2.22
2022-12-27T07:34:57.764Z,2.23
2022-12-27T07:37:24.245Z,2.25
2022-12-27T07:39:50.639Z,2.26
2022-12-27T07:42:17.026Z,2.29
2022-12-27T07:44:43.431Z,2.34
2022-12-27T07:47:10.161Z,2.33
2022-12-27T07:49:36.529Z,2.34
2022-12-27T07:52:03.054Z,2.33
2022-12-27T07:54:29.467Z,2.33
2022-12-27T07:56:55.853Z,2.33
2022-12-27T07:59:22.457Z,2.32
2022-12-27T08:02:04.515Z,2.33
2022-12-27T08:04:34.659Z,2.34
2022-12-27T08:07:05.692Z,2.34
2022-12-27T08:09:35.108Z,2.35
2022-12-27T08:12:01.586Z,2.36
2022-12-27T08:14:28.876Z,2.36
2022-12-27T08:16:59.254Z,2.39
2022-12-27T08:19:25.697Z,2.42
2022-12-27T08:21:52.131Z,2.43
2022-12-27T08:24:18.516Z,2.47
2022-12-27T08:26:44.949Z,2.46
2022-12-27T08:29:11.336Z,2.49
2022-12-27T08:31:37.746Z,2.52
2022-12-27T08:34:04.331Z,2.52
2022-12-27T08:36:54.861Z,2.53
2022-12-27T08:39:17.501Z,2.56
2022-12-27T08:41:43.990Z,2.59
2022-12-27T08:44:10.611Z,2.62
2022-12-27T08:46:37.520Z,2.65
2022-12-27T08:49:05.055Z,2.66
2022-12-27T08:51:40.408Z,2.70
2022-12-27T08:54:08.353Z,2.73
2022-12-27T08:56:34.769Z,2.78
2022-12-27T08:59:01.300Z,2.84
2022-12-27T09:01:27.813Z,2.90
2022-12-27T09:03:54.268Z,2.94
2022-12-27T09:06:22.698Z,2.99
2022-12-27T09:08:50.462Z,3.05
2022-12-27T09:11:20.233Z,3.08
2022-12-27T09:13:47.081Z,3.11
2022-12-27T09:16:22.876Z,3.14
2022-12-27T09:18:51.297Z,3.19
2022-12-27T09:21:19.297Z,3.24
2022-12-27T09:23:47.285Z,3.26
2022-12-27T09:26:19.423Z,3.30
2022-12-27T09:28:46.823Z,3.35
2022-12-27T09:31:14.514Z,3.39
2022-12-27T09:33:41.605Z,3.42
2022-12-27T09:36:14.169Z,3.45
2022-12-27T09:38:46.829Z,3.48
2022-12-27T09:42:11.466Z,3.52
2022-12-27T09:44:33.617Z,3.54
2022-12-27T09:47:17.727Z,3.59
2022-12-27T09:50:12.791Z,3.63
2022-12-27T09:53:01.659Z,3.66
2022-12-27T09:55:34.210Z,3.70
2022-12-27T09:58:30.201Z,3.73
2022-12-27T10:00:56.609Z,3.76
2022-12-27T10:03:26.458Z,3.76
2022-12-27T10:06:14.679Z,3.76
2022-12-27T10:08:57.487Z,3.79
2022-12-27T10:11:41.900Z,3.84
2022-12-27T10:14:36.767Z,3.87
2022-12-27T10:17:40.831Z,3.88
2022-12-27T10:20:30.147Z,3.92
2022-12-27T10:23:06.682Z,3.95
2022-12-27T10:25:36.077Z,3.97
2022-12-27T10:28:14.261Z,3.98
2022-12-27T10:30:41.771Z,4.01
2022-12-27T10:33:20.413Z,4.05
2022-12-27T10:35:48.585Z,4.12
2022-12-27T10:38:14.968Z,4.19
2022-12-27T10:41:19.863Z,4.29
2022-12-27T10:43:51.289Z,4.38
2022-12-27T10:46:32.375Z,4.46
2022-12-27T10:51:47.262Z,4.46
2022-12-27T10:54:16.667Z,4.42
2022-12-27T10:56:44.244Z,4.39
2022-12-27T10:59:15.551Z,4.43
2022-12-27T11:01:42.865Z,4.50
2022-12-27T11:04:20.076Z,4.56
2022-12-27T11:06:59.579Z,4.56
2022-12-27T11:09:28.964Z,4.56
2022-12-27T11:12:14.343Z,4.55
2022-12-27T11:15:11.166Z,4.56
2022-12-27T11:17:47.444Z,4.60
2022-12-27T11:20:25.868Z,4.69
2022-12-27T11:23:10.494Z,4.89
2022-12-27T11:25:53.324Z,5.10
2022-12-27T11:28:22.670Z,5.31
2022-12-27T11:31:03.930Z,5.45
2022-12-27T11:33:37.396Z,5.62
2022-12-27T11:36:04.800Z,5.70
2022-12-27T11:38:33.694Z,5.78
2022-12-27T11:41:27.589Z,5.86
2022-12-27T11:44:00.553Z,5.89
2022-12-27T11:46:35.243Z,5.94
2022-12-27T11:49:06.267Z,6.02
2022-12-27T11:51:50.971Z,6.04
2022-12-27T11:54:36.513Z,6.10
2022-12-27T11:57:24.828Z,6.15
2022-12-27T12:00:22.165Z,6.19
2022-12-27T12:03:36.534Z,6.19
2022-12-27T12:06:14.329Z,6.15
2022-12-27T12:08:43.700Z,6.17
2022-12-27T12:11:29.278Z,6.17
2022-12-27T12:14:53.671Z,6.17
2022-12-27T12:17:46.375Z,6.13
2022-12-27T12:20:50.458Z,6.12
2022-12-27T12:23:19.929Z,6.11
2022-12-27T12:26:21.611Z,6.13
2022-12-27T12:29:06.713Z,6.17
2022-12-27T12:31:45.877Z,6.19
2022-12-27T12:34:42.587Z,6.25
2022-12-27T12:37:46.507Z,6.28
2022-12-27T12:40:32.516Z,6.32
2022-12-27T12:43:37.663Z,6.34
2022-12-27T12:46:25.411Z,6.37
2022-12-27T12:49:07.091Z,6.43
2022-12-27T12:51:59.892Z,6.48
2022-12-27T12:55:02.850Z,6.56
2022-12-27T12:57:57.380Z,6.59
2022-12-27T13:00:37.443Z,6.64
2022-12-27T13:03:15.880Z,6.62
2022-12-27T13:06:13.251Z,6.56
2022-12-27T13:08:52.923Z,6.49
2022-12-27T13:11:35.165Z,6.46
2022-12-27T13:14:19.724Z,6.50
2022-12-27T13:17:06.694Z,6.54
2022-12-27T13:20:11.509Z,6.54
2022-12-27T13:23:15.503Z,6.55
2022-12-27T13:25:53.485Z,6.55
2022-12-27T13:28:42.531Z,6.52
2022-12-27T13:31:26.024Z,6.50
2022-12-27T13:34:24.239Z,6.47
2022-12-27T13:37:16.243Z,6.44
2022-12-27T13:40:14.184Z,6.44
2022-12-27T13:43:30.882Z,6.45
2022-12-27T13:46:34.155Z,6.47
2022-12-27T13:49:22.848Z,6.52
2022-12-27T13:51:55.851Z,6.57
2022-12-27T13:54:31.214Z,6.61
2022-12-27T13:57:12.409Z,6.62
2022-12-27T13:59:41.752Z,6.63
2022-12-27T14:02:27.358Z,6.62
2022-12-27T14:05:01.003Z,6.61
2022-12-27T14:07:33.332Z,6.62
2022-12-27T14:10:13.302Z,6.61
2022-12-27T14:12:55.207Z,6.57
2022-12-27T14:15:53.151Z,6.56
2022-12-27T14:18:45.257Z,6.55
2022-12-27T14:21:19.819Z,6.53
2022-12-27T14:23:59.742Z,6.49
2022-12-27T14:26:51.081Z,6.46
2022-12-27T14:30:14.860Z,6.45
2022-12-27T14:33:05.917Z,6.39
2022-12-27T14:36:23.143Z,6.35
2022-12-27T14:39:10.403Z,6.30
2022-12-27T14:42:16.827Z,6.29
2022-12-27T14:44:55.483Z,6.28
2022-12-27T14:47:45.067Z,6.27
2022-12-27T14:50:51.153Z,6.26
2022-12-27T14:53:48.555Z,6.24
2022-12-27T14:56:26.311Z,6.19
2022-12-27T14:59:16.781Z,6.19
2022-12-27T15:01:57.166Z,6.17
2022-12-27T15:05:11.823Z,6.16
2022-12-27T15:08:27.614Z,6.15
2022-12-27T15:11:42.391Z,6.11
2022-12-27T15:14:54.022Z,6.11
2022-12-27T15:17:59.373Z,6.07
2022-12-27T15:20:31.779Z,6.01
2022-12-27T15:23:15.591Z,5.97
2022-12-27T15:26:01.789Z,5.96
2022-12-27T15:28:48.131Z,5.94
2022-12-27T15:31:37.438Z,5.93
2022-12-27T15:34:21.139Z,5.90
2022-12-27T15:36:49.587Z,5.92
2022-12-27T15:39:34.274Z,5.89
2022-12-27T15:42:08.489Z,5.88
2022-12-27T15:45:08.797Z,5.88
2022-12-27T15:48:06.869Z,5.86
2022-12-27T15:51:20.899Z,5.84
2022-12-27T15:53:57.581Z,5.82
2022-12-27T15:56:43.981Z,5.81
2022-12-27T15:59:48.090Z,5.80
2022-12-27T16:02:19.992Z,5.79
2022-12-27T16:04:53.782Z,5.78
2022-12-27T16:07:38.795Z,5.77
2022-12-27T16:10:29.192Z,5.77
2022-12-27T16:13:04.648Z,5.76
2022-12-27T16:15:34.056Z,5.76
2022-12-27T16:18:02.489Z,5.76
2022-12-27T16:20:29.976Z,5.78
2022-12-27T16:22:59.793Z,5.82
2022-12-27T16:25:31.922Z,5.83
2022-12-27T16:28:06.028Z,5.84
2022-12-27T16:30:51.333Z,5.86
2022-12-27T16:33:27.018Z,5.87
2022-12-27T16:36:11.799Z,5.86
2022-12-27T16:39:12.331Z,5.88
2022-12-27T16:41:53.925Z,5.89
2022-12-27T16:44:28.033Z,5.89
2022-12-27T16:46:57.801Z,5.91
2022-12-27T16:49:55.387Z,5.93
2022-12-27T16:52:43.347Z,5.93
2022-12-27T16:55:47.135Z,5.94
2022-12-27T16:58:34.363Z,5.97
2022-12-27T17:01:06.768Z,5.96
2022-12-27T17:03:36.346Z,5.97
2022-12-27T17:06:38.008Z,6.00
2022-12-27T17:09:11.762Z,6.00
2022-12-27T17:12:05.581Z,6.02
2022-12-27T17:14:36.116Z,6.01
2022-12-27T17:17:07.556Z,6.01
2022-12-27T17:19:38.709Z,6.03
2022-12-27T17:22:07.589Z,6.02
2022-12-27T17:24:34.429Z,6.02
2022-12-27T17:27:13.082Z,5.99
2022-12-27T17:30:01.299Z,5.98
2022-12-27T17:32:41.327Z,5.96
2022-12-27T17:35:28.541Z,5.96
2022-12-27T17:38:17.721Z,5.93
2022-12-27T17:41:14.993Z,5.94
2022-12-27T17:44:27.017Z,5.93
2022-12-27T17:47:37.092Z,5.99
2022-12-27T17:50:09.168Z,6.03
2022-12-27T17:52:54.288Z,6.04
2022-12-27T17:55:42.859Z,6.06
2022-12-27T17:58:12.554Z,6.09
2022-12-27T18:01:01.378Z,6.09
2022-12-27T18:03:43.218Z,6.10
2022-12-27T18:06:10.546Z,6.05
2022-12-27T18:08:38.552Z,6.01
2022-12-27T18:11:06.265Z,5.93
2022-12-27T18:13:39.599Z,5.91
2022-12-27T18:16:16.807Z,5.88
2022-12-27T18:18:47.818Z,5.89
2022-12-27T18:21:28.935Z,5.84
2022-12-27T18:23:56.112Z,5.81
2022-12-27T18:26:33.905Z,5.82
2022-12-27T18:29:00.371Z,5.76
2022-12-27T18:31:34.536Z,5.75
2022-12-27T18:34:27.183Z,5.71
2022-12-27T18:37:11.237Z,5.70
2022-12-27T18:39:42.130Z,5.69
2022-12-27T18:42:19.025Z,5.66
2022-12-27T18:44:49.256Z,5.68
2022-12-27T18:47:20.258Z,5.69
2022-12-27T18:49:52.853Z,5.67
2022-12-27T18:52:40.849Z,5.66
2022-12-27T18:55:26.684Z,5.60
2022-12-27T18:58:07.891Z,5.58
2022-12-27T19:00:48.597Z,5.55
2022-12-27T19:03:17.778Z,5.49
2022-12-27T19:06:00.865Z,5.51
2022-12-27T19:08:33.666Z,5.52
2022-12-27T19:11:00.180Z,5.49
2022-12-27T19:13:31.159Z,5.42
2022-12-27T19:15:58.484Z,5.37
2022-12-27T19:18:35.267Z,5.40
2022-12-27T19:21:04.608Z,5.37
2022-12-27T19:23:37.381Z,5.34
2022-12-27T19:26:21.763Z,5.34
2022-12-27T19:29:06.436Z,5.30
2022-12-27T19:31:34.268Z,5.30
2022-12-27T19:34:05.774Z,5.24
2022-12-27T19:36:36.882Z,5.22
2022-12-27T19:39:06.989Z,5.17
2022-12-27T19:41:34.886Z,5.16
2022-12-27T19:44:01.549Z,5.19
2022-12-27T19:46:31.147Z,5.19
2022-12-27T19:51:44.497Z,5.15
2022-12-27T19:54:15.720Z,5.18
2022-12-27T19:56:42.423Z,5.20
2022-12-27T19:59:21.375Z,5.19
2022-12-27T20:01:48.207Z,5.23
2022-12-27T20:04:16.161Z,5.27
2022-12-27T20:06:45.187Z,5.29
2022-12-27T20:09:17.054Z,5.27
2022-12-27T20:11:43.830Z,5.33
2022-12-27T20:14:10.730Z,5.30
2022-12-27T20:16:37.256Z,5.28
2022-12-27T20:19:03.876Z,5.33
2022-12-27T20:21:30.279Z,5.35
2022-12-27T20:23:56.742Z,5.36
2022-12-27T20:26:25.240Z,5.36
2022-12-27T20:28:52.736Z,5.38
2022-12-27T20:31:21.092Z,5.36
2022-12-27T20:33:53.478Z,5.35
2022-12-27T20:36:20.760Z,5.39
2022-12-27T20:38:47.241Z,5.40
2022-12-27T20:41:16.045Z,5.42
2022-12-27T20:43:42.755Z,5.43
2022-12-27T20:46:12.640Z,5.42
2022-12-27T20:48:41.919Z,5.42
2022-12-27T20:51:13.684Z,5.43
2022-12-27T20:53:40.041Z,5.41
2022-12-27T20:56:08.828Z,5.41
2022-12-27T20:58:35.637Z,5.43
2022-12-27T21:01:23.159Z,5.45
2022-12-27T21:03:49.776Z,5.47
2022-12-27T21:06:23.340Z,5.48
2022-12-27T21:08:56.265Z,5.52
2022-12-27T21:11:26.980Z,5.53
2022-12-27T21:13:53.479Z,5.53
2022-12-27T21:16:22.191Z,5.54
2022-12-27T21:18:49.501Z,5.54
2022-12-27T21:21:19.898Z,5.53
2022-12-27T21:23:46.903Z,5.52
2022-12-27T21:26:16.265Z,5.53
2022-12-27T21:28:43.519Z,5.58
2022-12-27T21:31:10.430Z,5.57
2022-12-27T21:33:37.003Z,5.57
2022-12-27T21:36:06.353Z,5.60
2022-12-27T21:38:33.270Z,5.58
2022-12-27T21:41:09.264Z,5.61
2022-12-27T21:43:35.642Z,5.61
2022-12-27T21:46:11.754Z,5.61
2022-12-27T21:48:38.225Z,5.63
2022-12-27T21:51:10.387Z,5.62
2022-12-27T21:53:36.966Z,5.60
2022-12-27T21:56:04.436Z,5.61
2022-12-27T21:58:36.617Z,5.60
2022-12-27T22:01:09.354Z,5.60
2022-12-27T22:03:39.449Z,5.59
2022-12-27T22:06:11.645Z,5.56
2022-12-27T22:08:38.194Z,5.57
2022-12-27T22:11:05.167Z,5.59
2022-12-27T22:13:32.842Z,5.60
2022-12-27T22:16:02.252Z,5.58
2022-12-27T22:18:33.390Z,5.57
2022-12-27T22:21:01.423Z,5.54
2022-12-27T22:23:32.205Z,5.52
2022-12-27T22:25:58.641Z,5.54
2022-12-27T22:28:25.745Z,5.57
2022-12-27T22:30:52.323Z,5.56
2022-12-27T22:33:18.839Z,5.52
2022-12-27T22:35:45.299Z,5.47
2022-12-27T22:38:11.726Z,5.41
2022-12-27T22:40:43.969Z,5.37
2022-12-27T22:43:13.311Z,5.37
2022-12-27T22:45:42.795Z,5.36
2022-12-27T22:48:09.559Z,5.34
2022-12-27T22:50:38.007Z,5.32
2022-12-27T22:53:04.650Z,5.29
2022-12-27T22:55:31.127Z,5.25
2022-12-27T22:57:57.510Z,5.23
2022-12-27T23:00:23.921Z,5.21
2022-12-27T23:02:50.371Z,5.20
2022-12-27T23:05:16.978Z,5.19
2022-12-27T23:08:04.061Z,5.16
2022-12-27T23:10:29.920Z,5.16
2022-12-27T23:12:56.858Z,5.16
2022-12-27T23:15:23.282Z,5.13
2022-12-27T23:17:49.645Z,5.12
2022-12-27T23:20:16.133Z,5.11
2022-12-27T23:22:42.538Z,5.09
2022-12-27T23:25:09.184Z,5.10
2022-12-27T23:27:35.615Z,5.10
2022-12-27T23:30:02.217Z,5.09
2022-12-27T23:32:28.796Z,5.08
2022-12-27T23:34:55.177Z,5.09
2022-12-27T23:37:21.619Z,5.11
2022-12-27T23:39:48.038Z,5.10
2022-12-27T23:42:14.425Z,5.11
2022-12-27T23:44:40.821Z,5.12
2022-12-27T23:47:07.260Z,5.12
2022-12-27T23:49:34.347Z,5.11
2022-12-27T23:52:00.983Z,5.10
2022-12-27T23:54:27.555Z,5.09
2022-12-27T23:56:54.022Z,5.09
2022-12-27T23:59:20.534Z,5.08
